• Join FlightAware (Why Join?)
  • Login
  • US Flag 
03:50AM EDT


 

Airport Tracker/Info


-or-


 

Live Flight TrackerFlight Track Log ✈ SKW6228 ✈ 10-May-2013 ✈ KDEN - KBOI

Flight Track Log - Related Links

Times and Time Zones

All times are in EDT time to prevent confusion due to time zone crossing. See the SKW6228 flight status page for this flight to view local times or setup timezone preferences in your user account.

Time Position Orientation Groundspeed Altitude Reporting Facility
EDT Latitude Longitude Course Direction KTS MPH feet Rate Location/Type
10:55AM 39.8667 -104.8000 270° West 217 250 7,900  Level Denver TRACON
10:56AM 39.9000 -104.8833 298° West 266 306 9,600 1,740 Climbing Denver TRACON
10:57AM 39.8992 -104.9214 268° West 270 311 10,400 2,040 Climbing Denver Center
10:58AM 39.8992 -105.2727 276° West  Level FlightAware Approximate
10:58AM 39.9100 -105.0267 278° West 291 335 12,600  Level Denver Center
10:59AM 39.9232 -105.4213 277° West  Level FlightAware Approximate
10:59AM 39.9217 -105.1461 277° West 308 354 14,700  Level Denver Center
11:00AM 39.9333 -105.5732 270° West  Level FlightAware Approximate
11:00AM 39.9322 -105.2664 277° West 331 381 16,200  Level Denver Center
11:01AM 39.9467 -105.3947 278° West 359 413 17,400 1,140 Climbing Denver Center
11:02AM 39.9619 -105.5358 278° West 367 422 18,600 1,320 Climbing Denver Center
11:03AM 39.9728 -105.6725 276° West 380 437 20,200 1,620 Climbing Denver Center
11:04AM 39.9722 -105.8203 270° West 373 429 22,000 1,500 Climbing Denver Center
11:05AM 39.9733 -105.9319 271° West 355 409 23,300 1,140 Climbing Denver Center
11:06AM 39.9819 -106.0664 275° West 369 425 24,400 1,140 Climbing Denver Center
11:07AM 39.9911 -106.2311 274° West 377 434 25,700 960 Climbing Denver Center
11:08AM 39.9986 -106.3697 274° West 384 442 26,400 540 Climbing Denver Center
11:09AM 40.0292 -106.5050 286° West 404 465 26,900 480 Climbing Denver Center
11:10AM 40.0856 -106.6475 297° West 403 464 27,500 480 Climbing Denver Center
11:11AM 40.1369 -106.7756 298° West 414 476 27,900 480 Climbing Denver Center
11:12AM 40.1978 -106.9269 298° West 424 488 28,500 480 Climbing Denver Center
11:13AM 40.2481 -107.0572 297° West 421 484 29,000 480 Climbing Denver Center
11:14AM 40.3103 -107.2119 298° West 429 494 29,600 480 Climbing Denver Center
11:15AM 40.3628 -107.3456 297° West 431 496 30,100 600 Climbing Denver Center
11:16AM 40.4233 -107.5031 297° West 433 498 30,900 720 Climbing Denver Center
11:17AM 40.4750 -107.6344 297° West 427 491 31,600 480 Climbing Denver Center
11:18AM 40.5350 -107.7864 297° West 421 484 32,000 180 Climbing Denver Center
11:19AM 40.5858 -107.9192 297° West 424 488 32,000  Level Denver Center
11:20AM 40.6356 -108.0497 297° West 419 482 32,000  Level Denver Center
11:21AM 40.6925 -108.1981 297° West 410 472 32,000  Level Denver Center
11:22AM 40.7425 -108.3283 297° West 404 465 32,000  Level Denver Center
11:23AM 40.7825 -108.4344 296° West 403 464 32,000  Level Salt Lake Center
11:24AM 40.8378 -108.5833 296° West 405 466 32,000  Level Salt Lake Center
11:25AM 40.8864 -108.7125 296° West 408 470 32,000  Level Salt Lake Center
11:26AM 40.9428 -108.8622 297° West 407 468 32,000  Level Salt Lake Center
11:27AM 40.9911 -108.9925 296° West 410 472 32,000  Level Salt Lake Center
11:28AM 41.0389 -109.1225 296° West 409 471 32,000  Level Salt Lake Center
11:29AM 41.0953 -109.2775 296° West 415 478 32,000  Level Salt Lake Center
11:30AM 41.1442 -109.4094 296° West 415 478 32,000  Level Salt Lake Center
11:31AM 41.2003 -109.5631 296° West 412 474 32,000  Level Salt Lake Center
11:32AM 41.2483 -109.6947 296° West 412 474 32,000  Level Salt Lake Center
11:34AM 41.3042 -109.8497 296° West 413 475 32,000  Level Salt Lake Center
11:35AM 41.3511 -109.9828 295° West 414 476 32,000  Level Salt Lake Center
11:36AM 41.4069 -110.1367 296° West 413 475 32,000  Level Salt Lake Center
11:37AM 41.4542 -110.2686 296° West 412 474 32,000  Level Salt Lake Center
11:38AM 41.5014 -110.4028 295° West 416 479 32,000  Level Salt Lake Center
11:39AM 41.5553 -110.5581 295° West 414 476 32,000  Level Salt Lake Center
11:40AM 41.6031 -110.6908 296° West 413 475 32,000  Level Salt Lake Center
11:41AM 41.6572 -110.8464 295° West 413 475 32,000  Level Salt Lake Center
11:42AM 41.7011 -110.9731 295° West 413 475 32,000  Level Salt Lake Center
11:43AM 41.7581 -111.1397 295° West 414 476 32,000  Level Salt Lake Center
11:44AM 41.8056 -111.2792 295° West 414 476 32,000  Level Salt Lake Center
11:45AM 41.8531 -111.4189 295° West 414 476 32,000  Level Salt Lake Center
11:46AM 41.9017 -111.5578 295° West 414 476 32,000  Level Salt Lake Center
11:47AM 41.9483 -111.6989 294° West 415 478 32,000  Level Salt Lake Center
11:48AM 42.0058 -111.8678 295° West 417 480 32,000  Level Salt Lake Center
11:49AM 42.0528 -112.0092 294° West 416 479 32,000  Level Salt Lake Center
11:50AM 42.0997 -112.1511 294° West 416 479 32,000  Level Salt Lake Center
11:51AM 42.1475 -112.2936 294° West 418 481 32,000  Level Salt Lake Center
11:52AM 42.1942 -112.4367 294° West 418 481 32,000  Level Salt Lake Center
11:53AM 42.2475 -112.5744 298° West 416 479 32,000  Level Salt Lake Center
11:54AM 42.3114 -112.7414 297° West 418 481 32,000  Level Salt Lake Center
11:55AM 42.3642 -112.8800 297° West 417 480 32,000  Level Salt Lake Center
11:56AM 42.4186 -113.0203 298° West 420 483 32,000  Level Salt Lake Center
11:57AM 42.4703 -113.1606 297° West 419 482 32,000  Level Salt Lake Center
11:58AM 42.5233 -113.3000 297° West 418 481 32,000  Level Salt Lake Center
11:59AM 42.5750 -113.4389 297° West 415 478 32,000  Level Salt Lake Center
12:00PM 42.6383 -113.6108 297° West 424 488 32,000  Level Salt Lake Center
12:01PM 42.6864 -113.7406 297° West 422 486 32,000 -120 Level Salt Lake Center
12:02PM 42.7417 -113.8983 296° West 429 494 31,800 -720 Descending Salt Lake Center
12:04PM 42.7942 -114.0433 296° West 430 495 30,600 -1,260 Descending Salt Lake Center
12:05PM 42.8481 -114.1903 297° West 434 499 29,200 -1,560 Descending Salt Lake Center
12:06PM 42.9122 -114.3653 297° West 430 495 27,400 -1,080 Descending Salt Lake Center
12:07PM 42.9686 -114.5147 297° West 429 494 27,000 -240 Descending Salt Lake Center
12:08PM 43.0172 -114.6531 296° West 424 488 27,000 -900 Level Salt Lake Center
12:09PM 43.0683 -114.7958 296° West 436 502 25,200 -2,040 Descending Salt Lake Center
12:10PM 43.1281 -114.9633 296° West 434 499 22,800 -2,280 Descending Salt Lake Center
12:11PM 43.1750 -115.0981 296° West 412 474 20,600 -2,280 Descending Salt Lake Center
12:12PM 43.2281 -115.2497 296° West 387 445 18,200 -2,040 Descending Salt Lake Center
12:13PM 43.2511 -115.3806 284° West 370 426 16,500 -1,800 Descending Salt Lake Center
12:14PM 43.2717 -115.5236 281° West 368 423 14,600 -1,800 Descending Salt Lake Center
12:15PM 43.3117 -115.6478 294° West 344 396 12,800 -1,620 Descending Salt Lake Center
12:16PM 43.3158 -115.7736 273° West 313 360 11,300 -1,500 Descending Salt Lake Center
12:17PM 43.3414 -115.8814 288° West 286 329 9,800 -1,500 Descending Salt Lake Center
12:18PM 43.3717 -115.9819 293° West 275 316 8,300 -1,500 Descending Salt Lake Center
12:19PM 43.3994 -116.0817 291° West 270 311 6,800 -1,140 Descending Salt Lake Center
12:20PM 43.4333 -116.1728 297° West 254 292 6,000 -840 Descending Salt Lake Center
12:21PM 43.4639 -116.2417 301° West 223 257 5,100 -540 Descending Salt Lake Center
12:22PM 43.4942 -116.3081 302° West 196 226 5,000 -300 Descending Salt Lake Center
12:23PM 43.5397 -116.3594 321° Northwest 200 230 4,600 -300 Descending Salt Lake Center
12:24PM 43.5919 -116.3656 355° North 185 213 4,500 -420 Descending Salt Lake Center
12:25PM 43.5925 -116.3008 89° East 182 209 3,800 -600 Descending Salt Lake Center
12:26PM 43.5736 -116.2464 116° Southeast 162 186 3,300 -540 Descending Salt Lake Center